createdAt,value
2019-04-20T00:02:07.199Z,101244.72
2019-04-20T00:04:34.226Z,101244.70
2019-04-20T00:07:01.954Z,101244.69
2019-04-20T00:09:31.765Z,101249.41
2019-04-20T00:12:07.072Z,101251.56
2019-04-20T00:14:30.974Z,101259.62
2019-04-20T00:16:55.061Z,101256.73
2019-04-20T00:19:31.377Z,101255.95
2019-04-20T00:21:56.433Z,101262.80
2019-04-20T00:24:24.851Z,101265.39
2019-04-20T00:29:35.297Z,101259.08
2019-04-20T00:31:58.352Z,101253.12
2019-04-20T00:34:22.855Z,101255.64
2019-04-20T00:36:43.372Z,101250.94
2019-04-20T00:39:13.135Z,101250.48
2019-04-20T00:41:43.796Z,101244.94
2019-04-20T00:44:13.399Z,101247.91
2019-04-20T00:46:51.245Z,101247.02
2019-04-20T00:49:20.657Z,101244.47
2019-04-20T00:51:54.669Z,101245.73
2019-04-20T00:54:03.931Z,101259.34
2019-04-20T00:56:31.485Z,101253.41
2019-04-20T00:59:14.603Z,101250.84
2019-04-20T01:01:47.663Z,101252.12
2019-04-20T01:04:15.076Z,101253.42
2019-04-20T01:06:42.420Z,101250.50
2019-04-20T01:08:54.997Z,101258.62
2019-04-20T01:11:27.031Z,101255.22
2019-04-20T01:13:55.396Z,101257.77
2019-04-20T01:16:29.556Z,101256.52
2019-04-20T01:18:49.405Z,101250.14
2019-04-20T01:21:21.589Z,101254.82
2019-04-20T01:23:52.573Z,101253.98
2019-04-20T01:26:17.317Z,101255.26
2019-04-20T01:28:54.219Z,101259.52
2019-04-20T01:31:22.104Z,101255.25
2019-04-20T01:33:51.912Z,101251.84
2019-04-20T01:36:29.267Z,101250.59
2019-04-20T01:38:55.078Z,101249.73
2019-04-20T01:41:05.524Z,101250.59
2019-04-20T01:43:33.218Z,101248.47
2019-04-20T01:46:08.190Z,101259.53
2019-04-20T01:48:34.015Z,101257.83
2019-04-20T01:51:07.343Z,101258.67
2019-04-20T01:53:44.367Z,101252.29
2019-04-20T01:56:13.986Z,101254.84
2019-04-20T01:58:47.960Z,101256.11
2019-04-20T02:00:55.653Z,101261.23
2019-04-20T02:03:29.116Z,101257.80
2019-04-20T02:05:55.636Z,101253.98
2019-04-20T02:08:22.948Z,101251.84
2019-04-20T02:10:53.666Z,101253.57
2019-04-20T02:13:17.409Z,101247.19
2019-04-20T02:15:48.599Z,101254.85
2019-04-20T02:18:26.972Z,101249.30
2019-04-20T02:20:59.867Z,101247.62
2019-04-20T02:23:21.239Z,101251.45
2019-04-20T02:25:39.708Z,101248.88
2019-04-20T02:28:27.154Z,101245.89
2019-04-20T02:31:15.587Z,101249.23
2019-04-20T02:33:42.797Z,101248.81
2019-04-20T02:36:12.799Z,101248.84
2019-04-20T02:38:51.026Z,101248.80
2019-04-20T02:41:21.459Z,101242.84
2019-04-20T02:43:55.133Z,101250.08
2019-04-20T02:48:31.692Z,101241.58
2019-04-20T02:51:02.178Z,101243.30
2019-04-20T02:53:39.010Z,101245.80
2019-04-20T02:56:02.114Z,101250.02
2019-04-20T02:58:23.564Z,101246.98
2019-04-20T03:00:55.174Z,101250.80
2019-04-20T03:03:03.484Z,101242.73
2019-04-20T03:05:29.790Z,101243.99
2019-04-20T03:08:08.752Z,101235.49
2019-04-20T03:10:46.379Z,101243.16
2019-04-20T03:13:08.599Z,101240.61
2019-04-20T03:15:40.518Z,101242.72
2019-04-20T03:18:03.585Z,101237.52
2019-04-20T03:20:39.087Z,101235.84
2019-04-20T03:23:17.719Z,101243.94
2019-04-20T03:25:29.656Z,101243.16
2019-04-20T03:28:01.729Z,101239.41
2019-04-20T03:31:07.449Z,101245.79
2019-04-20T03:33:24.101Z,101241.95
2019-04-20T03:35:28.622Z,101248.22
2019-04-20T03:37:54.722Z,101242.98
2019-04-20T03:40:12.810Z,101244.06
2019-04-20T03:42:29.080Z,101243.94
2019-04-20T03:45:00.481Z,101235.49
2019-04-20T03:47:36.980Z,101237.64
2019-04-20T03:50:20.178Z,101235.53
2019-04-20T03:52:37.696Z,101234.69
2019-04-20T03:55:10.841Z,101238.94
2019-04-20T03:57:40.909Z,101238.97
2019-04-20T04:00:04.706Z,101236.94
2019-04-20T04:02:49.309Z,101235.23
2019-04-20T04:05:04.304Z,101241.86
2019-04-20T04:07:22.832Z,101240.09
2019-04-20T04:10:01.167Z,101235.86
2019-04-20T04:12:20.312Z,101237.66
2019-04-20T04:14:40.914Z,101237.72
2019-04-20T04:17:12.163Z,101236.06
2019-04-20T04:19:40.245Z,101236.95
2019-04-20T04:22:19.346Z,101239.02
2019-04-20T04:24:52.518Z,101237.75
2019-04-20T04:27:25.629Z,101235.29
2019-04-20T04:29:55.624Z,101235.36
2019-04-20T04:32:33.092Z,101232.42
2019-04-20T04:34:51.498Z,101238.81
2019-04-20T04:37:16.489Z,101244.72
2019-04-20T04:39:50.634Z,101239.18
2019-04-20T04:42:25.105Z,101241.31
2019-04-20T04:44:35.458Z,101237.95
2019-04-20T04:46:56.754Z,101247.75
2019-04-20T04:49:28.425Z,101247.34
2019-04-20T04:51:58.575Z,101245.17
2019-04-20T04:54:29.357Z,101244.77
2019-04-20T04:56:46.754Z,101249.91
2019-04-20T04:59:14.841Z,101247.43
2019-04-20T05:01:45.248Z,101250.78
2019-04-20T05:04:31.778Z,101258.84
2019-04-20T05:06:55.845Z,101254.63
2019-04-20T05:09:12.522Z,101258.51
2019-04-20T05:11:38.484Z,101256.36
2019-04-20T05:14:10.067Z,101262.28
2019-04-20T05:16:49.923Z,101258.92
2019-04-20T05:19:24.750Z,101258.94
2019-04-20T05:22:01.185Z,101267.04
2019-04-20T05:24:16.889Z,101269.61
2019-04-20T05:26:53.134Z,101266.28
2019-04-20T05:29:06.693Z,101264.64
2019-04-20T05:31:34.000Z,101265.48
2019-04-20T05:34:20.434Z,101259.09
2019-04-20T05:36:42.662Z,101264.63
2019-04-20T05:41:38.655Z,101256.52
2019-04-20T05:44:04.746Z,101253.53
2019-04-20T05:46:37.368Z,101254.42
2019-04-20T05:49:10.029Z,101254.40
2019-04-20T05:54:07.196Z,101243.98
2019-04-20T05:56:40.260Z,101243.92
2019-04-20T05:58:59.622Z,101243.05
2019-04-20T06:01:34.419Z,101245.11
2019-04-20T06:03:58.171Z,101246.66
2019-04-20T06:06:32.840Z,101247.88
2019-04-20T06:09:08.562Z,101250.75
2019-04-20T06:11:30.344Z,101250.17
2019-04-20T06:13:47.152Z,101250.53
2019-04-20T06:16:25.224Z,101253.43
2019-04-20T06:18:45.898Z,101249.63
2019-04-20T06:21:35.378Z,101247.33
2019-04-20T06:26:41.815Z,101247.81
2019-04-20T06:28:42.914Z,101249.13
2019-04-20T06:31:18.040Z,101247.41
2019-04-20T06:34:00.281Z,101254.88
2019-04-20T06:36:22.107Z,101256.30
2019-04-20T06:38:57.498Z,101257.23
2019-04-20T06:43:45.962Z,101258.47
2019-04-20T06:46:09.874Z,101253.58
2019-04-20T06:48:42.928Z,101260.73
2019-04-20T06:51:03.542Z,101260.46
2019-04-20T06:53:39.028Z,101263.61
2019-04-20T06:56:05.322Z,101266.95
2019-04-20T06:58:46.364Z,101265.29
2019-04-20T07:01:03.695Z,101271.06
2019-04-20T07:03:49.394Z,101262.78
2019-04-20T07:06:06.630Z,101265.73
2019-04-20T07:08:43.928Z,101262.83
2019-04-20T07:10:59.392Z,101268.30
2019-04-20T07:13:18.847Z,101270.11
2019-04-20T07:15:46.272Z,101269.56
2019-04-20T07:18:26.564Z,101265.62
2019-04-20T07:20:57.359Z,101267.81
2019-04-20T07:25:48.836Z,101266.28
2019-04-20T07:28:24.749Z,101265.81
2019-04-20T07:30:44.894Z,101271.31
2019-04-20T07:33:18.616Z,101265.69
2019-04-20T07:35:40.438Z,101266.30
2019-04-20T07:40:39.757Z,101264.12
2019-04-20T07:43:04.404Z,101261.97
2019-04-20T07:45:34.887Z,101267.77
2019-04-20T07:48:11.509Z,101264.67
2019-04-20T07:50:31.760Z,101262.20
2019-04-20T07:52:51.103Z,101262.91
2019-04-20T07:55:40.542Z,101262.30
2019-04-20T07:57:55.120Z,101260.84
2019-04-20T08:03:03.056Z,101261.83
2019-04-20T08:05:19.616Z,101252.88
2019-04-20T08:07:47.474Z,101250.97
2019-04-20T08:10:09.987Z,101249.94
2019-04-20T08:13:01.924Z,101249.23
2019-04-20T08:15:36.467Z,101248.56
2019-04-20T08:17:54.006Z,101248.38
2019-04-20T08:20:21.742Z,101248.23
2019-04-20T08:22:53.132Z,101251.17
2019-04-20T08:25:08.318Z,101245.53
2019-04-20T08:27:25.800Z,101245.43
2019-04-20T08:30:03.472Z,101243.63
2019-04-20T08:32:37.822Z,101241.85
2019-04-20T08:35:18.539Z,101238.46
2019-04-20T08:37:38.656Z,101243.14
2019-04-20T08:40:15.017Z,101235.86
2019-04-20T08:42:37.862Z,101230.66
2019-04-20T08:45:07.245Z,101228.94
2019-04-20T08:47:51.407Z,101230.33
2019-04-20T08:50:09.467Z,101224.88
2019-04-20T08:52:48.329Z,101229.14
2019-04-20T08:55:02.414Z,101224.41
2019-04-20T08:57:09.107Z,101219.15
2019-04-20T08:59:40.144Z,101215.65
2019-04-20T09:02:11.743Z,101212.21
2019-04-20T09:04:45.090Z,101214.03
2019-04-20T09:07:11.698Z,101214.15
2019-04-20T09:09:52.720Z,101206.80
2019-04-20T09:12:16.738Z,101205.47
2019-04-20T09:14:30.829Z,101202.84
2019-04-20T09:17:02.871Z,101207.91
2019-04-20T09:19:37.956Z,101208.29
2019-04-20T09:22:10.297Z,101207.80
2019-04-20T09:24:44.645Z,101205.61
2019-04-20T09:27:12.817Z,101201.73
2019-04-20T09:29:33.444Z,101198.77
2019-04-20T09:32:12.430Z,101191.41
2019-04-20T09:34:42.669Z,101191.02
2019-04-20T09:37:09.765Z,101190.13
2019-04-20T09:39:27.167Z,101189.34
2019-04-20T09:41:59.876Z,101190.64
2019-04-20T09:44:15.577Z,101185.05
2019-04-20T09:46:48.978Z,101181.66
2019-04-20T09:49:20.073Z,101185.05
2019-04-20T09:51:55.072Z,101187.64
2019-04-20T09:54:27.031Z,101182.14
2019-04-20T09:57:00.783Z,101179.61
2019-04-20T09:59:26.597Z,101177.51
2019-04-20T10:01:41.905Z,101180.95
2019-04-20T10:04:03.529Z,101171.44
2019-04-20T10:06:34.552Z,101166.28
2019-04-20T10:09:01.881Z,101173.16
2019-04-20T10:11:29.817Z,101169.77
2019-04-20T10:13:56.905Z,101175.31
2019-04-20T10:16:23.880Z,101162.83
2019-04-20T10:18:53.588Z,101161.48
2019-04-20T10:21:20.113Z,101156.27
2019-04-20T10:23:48.237Z,101159.23
2019-04-20T10:26:16.426Z,101154.98
2019-04-20T10:28:43.793Z,101154.08
2019-04-20T10:31:10.764Z,101154.08
2019-04-20T10:33:37.708Z,101142.93
2019-04-20T10:36:05.689Z,101142.88
2019-04-20T10:38:34.766Z,101144.17
2019-04-20T10:41:08.213Z,101141.12
2019-04-20T10:43:30.217Z,101146.33
2019-04-20T10:45:57.254Z,101138.64
2019-04-20T10:48:24.113Z,101139.59
2019-04-20T10:50:52.792Z,101142.08
2019-04-20T10:53:21.842Z,101140.36
2019-04-20T10:55:49.503Z,101133.09
2019-04-20T10:58:17.700Z,101135.63
2019-04-20T11:00:45.938Z,101134.28
2019-04-20T11:03:13.595Z,101129.50
2019-04-20T11:05:40.724Z,101132.03
2019-04-20T11:08:08.509Z,101120.41
2019-04-20T11:10:53.966Z,101123.41
2019-04-20T11:13:05.352Z,101113.95
2019-04-20T11:15:32.520Z,101113.95
2019-04-20T11:17:59.687Z,101112.28
2019-04-20T11:20:27.568Z,101116.55
2019-04-20T11:22:56.011Z,101110.89
2019-04-20T11:25:24.264Z,101105.73
2019-04-20T11:27:52.263Z,101104.82
2019-04-20T11:30:20.403Z,101103.95
2019-04-20T11:32:48.431Z,101096.20
2019-04-20T11:35:23.807Z,101093.63
2019-04-20T11:37:44.890Z,101099.17
2019-04-20T11:40:12.965Z,101087.55
2019-04-20T11:42:39.981Z,101091.80
2019-04-20T11:45:06.870Z,101086.64
2019-04-20T11:47:33.755Z,101088.35
2019-04-20T11:50:01.735Z,101083.98
2019-04-20T11:52:33.215Z,101083.47
2019-04-20T11:54:58.139Z,101081.30
2019-04-20T11:57:25.446Z,101076.19
2019-04-20T11:59:52.999Z,101073.14
2019-04-20T12:02:29.102Z,101072.65
2019-04-20T12:04:59.816Z,101063.99
2019-04-20T12:07:17.435Z,101066.58
2019-04-20T12:09:44.371Z,101058.45
2019-04-20T12:12:24.364Z,101051.94
2019-04-20T12:14:40.919Z,101052.73
2019-04-20T12:17:08.018Z,101047.95
2019-04-20T12:19:36.290Z,101051.88
2019-04-20T12:22:05.580Z,101044.98
2019-04-20T12:24:33.219Z,101041.06
2019-04-20T12:27:01.261Z,101041.45
2019-04-20T12:29:29.935Z,101035.41
2019-04-20T12:32:00.050Z,101034.00
2019-04-20T12:34:26.477Z,101030.52
2019-04-20T12:36:53.491Z,101032.24
2019-04-20T12:39:22.243Z,101035.56
2019-04-20T12:41:53.606Z,101026.95
2019-04-20T12:44:19.603Z,101035.08
2019-04-20T12:46:47.799Z,101030.82
2019-04-20T12:49:15.841Z,101023.84
2019-04-20T12:51:50.740Z,101019.96
2019-04-20T12:54:11.738Z,101016.94
2019-04-20T12:56:38.704Z,101019.47
2019-04-20T12:59:05.764Z,101012.52
2019-04-20T13:01:33.327Z,100992.65
2019-04-20T13:04:02.879Z,101005.89
2019-04-20T13:06:30.067Z,101010.20
2019-04-20T13:09:00.267Z,101009.82
2019-04-20T13:11:26.691Z,101002.87
2019-04-20T13:13:54.524Z,101002.45
2019-04-20T13:16:22.623Z,100995.94
2019-04-20T13:18:50.816Z,100992.80
2019-04-20T13:21:19.024Z,100986.73
2019-04-20T13:23:47.342Z,100996.56
2019-04-20T13:26:15.658Z,100992.30
2019-04-20T13:28:43.328Z,100994.89
2019-04-20T13:31:11.530Z,100997.91
2019-04-20T13:33:39.151Z,100988.93
2019-04-20T13:36:08.130Z,100991.45
2019-04-20T13:38:36.260Z,100985.38
2019-04-20T13:41:04.081Z,100976.75
2019-04-20T13:43:32.047Z,100978.10
2019-04-20T13:46:00.762Z,100978.10
2019-04-20T13:48:29.077Z,100981.17
2019-04-20T13:50:56.135Z,100972.14
2019-04-20T13:53:23.389Z,100966.06
2019-04-20T13:55:50.680Z,100960.39
2019-04-20T13:58:18.855Z,100956.94
2019-04-20T14:00:50.357Z,100956.96
2019-04-20T14:03:16.591Z,100953.55
2019-04-20T14:05:44.699Z,100950.18
2019-04-20T14:08:11.736Z,100950.18
2019-04-20T14:10:39.675Z,100947.98
2019-04-20T14:13:12.134Z,100936.77
2019-04-20T14:15:35.664Z,100937.14
2019-04-20T14:18:03.110Z,100934.98
2019-04-20T14:20:29.997Z,100935.85
2019-04-20T14:22:56.949Z,100928.10
2019-04-20T14:25:24.901Z,100932.77
2019-04-20T14:27:52.906Z,100928.40
2019-04-20T14:30:21.143Z,100927.55
2019-04-20T14:32:48.990Z,100921.47
2019-04-20T14:35:16.753Z,100923.23
2019-04-20T14:37:43.871Z,100920.65
2019-04-20T14:40:12.514Z,100926.25
2019-04-20T14:42:46.409Z,100916.48
2019-04-20T14:45:08.937Z,100915.69
2019-04-20T14:47:36.158Z,100915.69
2019-04-20T14:50:03.433Z,100907.94
2019-04-20T14:52:31.428Z,100905.27
2019-04-20T14:54:59.521Z,100909.14
2019-04-20T14:57:27.636Z,100902.68
2019-04-20T14:59:55.918Z,100906.02
2019-04-20T15:02:23.281Z,100902.94
2019-04-20T15:04:50.535Z,100890.02
2019-04-20T15:07:18.415Z,100892.14
2019-04-20T15:09:46.698Z,100886.00
2019-04-20T15:12:14.967Z,100894.61
2019-04-20T15:14:42.740Z,100884.65
2019-04-20T15:17:10.930Z,100888.08
2019-04-20T15:19:39.106Z,100879.89
2019-04-20T15:22:07.523Z,100881.56
2019-04-20T15:24:35.607Z,100877.69
2019-04-20T15:27:02.651Z,100877.63
2019-04-20T15:29:30.532Z,100871.61
2019-04-20T15:31:59.901Z,100872.02
2019-04-20T15:34:26.951Z,100866.84
2019-04-20T15:36:54.130Z,100868.20
2019-04-20T15:39:21.097Z,100867.73
2019-04-20T15:41:49.461Z,100866.84
2019-04-20T15:44:17.527Z,100868.58
2019-04-20T15:46:45.517Z,100860.89
2019-04-20T15:49:13.608Z,100858.30
2019-04-20T15:51:41.814Z,100851.47
2019-04-20T15:54:09.515Z,100853.20
2019-04-20T15:56:37.621Z,100846.80
2019-04-20T15:59:04.621Z,100845.09
2019-04-20T16:01:32.280Z,100842.98
2019-04-20T16:03:59.404Z,100842.92
2019-04-20T16:06:27.362Z,100839.05
2019-04-20T16:08:54.695Z,100835.55
2019-04-20T16:11:21.658Z,100835.49
2019-04-20T16:13:53.405Z,100835.05
2019-04-20T16:16:17.597Z,100835.49
2019-04-20T16:18:45.222Z,100836.03
2019-04-20T16:21:20.928Z,100826.52
2019-04-20T16:23:43.312Z,100831.73
2019-04-20T16:26:11.403Z,100833.53
2019-04-20T16:28:39.543Z,100833.09
2019-04-20T16:31:08.733Z,100827.55
2019-04-20T16:33:35.452Z,100824.97
2019-04-20T16:36:04.751Z,100823.70
2019-04-20T16:38:33.098Z,100815.54
2019-04-20T16:41:00.141Z,100818.19
2019-04-20T16:43:33.934Z,100820.77
2019-04-20T16:45:55.652Z,100820.77
2019-04-20T16:48:22.576Z,100822.91
2019-04-20T16:50:49.525Z,100822.00
2019-04-20T16:53:17.064Z,100815.10
2019-04-20T16:55:45.195Z,100817.69
2019-04-20T16:58:13.375Z,100808.64
2019-04-20T17:00:41.223Z,100803.16
2019-04-20T17:03:09.092Z,100810.06
2019-04-20T17:05:37.029Z,100806.69
2019-04-20T17:08:04.911Z,100808.83
2019-04-20T17:10:32.745Z,100802.02
2019-04-20T17:12:59.978Z,100804.61
2019-04-20T17:15:27.650Z,100802.43
2019-04-20T17:17:56.713Z,100803.31
2019-04-20T17:20:25.229Z,100805.89
2019-04-20T17:22:52.024Z,100797.77
2019-04-20T17:25:19.719Z,100805.14
2019-04-20T17:27:46.918Z,100797.89
2019-04-20T17:30:17.959Z,100804.73
2019-04-20T17:32:43.521Z,100805.27
2019-04-20T17:35:23.228Z,100811.30
2019-04-20T17:37:43.127Z,100810.02
2019-04-20T17:40:30.027Z,100808.34
2019-04-20T17:42:50.768Z,100811.43
2019-04-20T17:45:12.328Z,100810.63
2019-04-20T17:47:52.846Z,100814.57
2019-04-20T17:50:20.214Z,100813.81
2019-04-20T17:52:51.076Z,100813.46
2019-04-20T17:55:01.354Z,100815.25
2019-04-20T17:57:29.566Z,100816.66
2019-04-20T18:00:00.427Z,100820.09
2019-04-20T18:02:45.963Z,100823.13
2019-04-20T18:05:20.123Z,100820.28
2019-04-20T18:08:06.399Z,100821.69
2019-04-20T18:10:11.499Z,100820.52
2019-04-20T18:12:27.020Z,100821.07
2019-04-20T18:15:10.325Z,100819.96
2019-04-20T18:17:32.109Z,100817.99
2019-04-20T18:19:47.153Z,100821.98
2019-04-20T18:22:14.208Z,100819.10
2019-04-20T18:25:01.828Z,100824.73
2019-04-20T18:27:31.735Z,100821.42
2019-04-20T18:29:59.879Z,100824.58
2019-04-20T18:32:09.291Z,100826.59
2019-04-20T18:34:36.358Z,100825.91
2019-04-20T18:37:06.464Z,100824.45
2019-04-20T18:39:37.424Z,100825.97
2019-04-20T18:42:09.994Z,100832.91
2019-04-20T18:44:46.133Z,100824.88
2019-04-20T18:47:18.165Z,100829.76
2019-04-20T18:49:43.067Z,100834.23
2019-04-20T18:51:56.030Z,100839.55
2019-04-20T18:54:27.709Z,100835.64
2019-04-20T18:56:53.333Z,100842.58
2019-04-20T18:59:23.444Z,100838.89
2019-04-20T19:01:48.934Z,100847.79
2019-04-20T19:04:17.554Z,100843.33
2019-04-20T19:06:45.926Z,100847.03
2019-04-20T19:09:21.611Z,100848.52
2019-04-20T19:11:52.540Z,100845.78
2019-04-20T19:14:21.244Z,100848.12
2019-04-20T19:16:59.721Z,100848.80
2019-04-20T19:19:22.038Z,100845.62
2019-04-20T19:21:41.263Z,100851.80
2019-04-20T19:24:12.639Z,100849.41
2019-04-20T19:26:47.899Z,100847.18
2019-04-20T19:29:15.642Z,100851.80
2019-04-20T19:31:57.357Z,100855.66
2019-04-20T19:34:26.556Z,100856.08
2019-04-20T19:36:43.450Z,100855.66
2019-04-20T19:39:19.891Z,100852.89
2019-04-20T19:41:44.320Z,100851.19
2019-04-20T19:44:13.127Z,100852.18
2019-04-20T19:47:07.702Z,100851.38
2019-04-20T19:49:17.424Z,100844.80
2019-04-20T19:51:55.372Z,100841.17
2019-04-20T19:54:20.483Z,100843.75
2019-04-20T19:56:42.634Z,100840.73
2019-04-20T19:59:09.572Z,100839.84
2019-04-20T20:01:25.172Z,100843.22
2019-04-20T20:03:56.294Z,100840.02
2019-04-20T20:06:29.193Z,100838.06
2019-04-20T20:08:55.755Z,100838.73
2019-04-20T20:11:29.886Z,100832.09
2019-04-20T20:13:53.074Z,100833.97
2019-04-20T20:16:25.038Z,100829.39
2019-04-20T20:18:58.674Z,100833.35
2019-04-20T20:21:27.287Z,100838.50
2019-04-20T20:23:45.927Z,100839.61
2019-04-20T20:26:23.046Z,100836.45
2019-04-20T20:28:47.650Z,100851.22
2019-04-20T20:31:21.819Z,100844.06
2019-04-20T20:33:56.483Z,100847.12
2019-04-20T20:36:12.763Z,100844.01
2019-04-20T20:38:39.990Z,100841.91
2019-04-20T20:41:15.127Z,100844.09
2019-04-20T20:43:52.315Z,100847.63
2019-04-20T20:46:18.564Z,100846.39
2019-04-20T20:48:48.173Z,100843.91
2019-04-20T20:51:15.328Z,100844.94
2019-04-20T20:53:42.837Z,100843.92
2019-04-20T20:56:06.561Z,100842.25
2019-04-20T20:58:43.304Z,100842.41
2019-04-20T21:01:06.782Z,100846.87
2019-04-20T21:03:32.275Z,100843.28
2019-04-20T21:05:55.589Z,100850.52
2019-04-20T21:08:23.820Z,100846.79
2019-04-20T21:10:51.059Z,100841.86
2019-04-20T21:13:19.223Z,100847.08
2019-04-20T21:15:54.149Z,100845.92
2019-04-20T21:18:39.378Z,100847.72
2019-04-20T21:21:01.004Z,100848.74
2019-04-20T21:23:28.312Z,100851.47
2019-04-20T21:25:47.612Z,100849.49
2019-04-20T21:28:10.802Z,100849.58
2019-04-20T21:30:42.847Z,100855.19
2019-04-20T21:33:07.881Z,100851.88
2019-04-20T21:35:38.118Z,100857.02
2019-04-20T21:38:07.964Z,100848.92
2019-04-20T21:40:39.487Z,100843.59
2019-04-20T21:43:05.587Z,100850.95
2019-04-20T21:45:35.336Z,100838.55
2019-04-20T21:48:03.464Z,100838.78
2019-04-20T21:50:52.321Z,100845.23
2019-04-20T21:53:04.767Z,100842.28
2019-04-20T21:55:25.946Z,100845.95
2019-04-20T21:57:55.376Z,100839.13
2019-04-20T22:00:27.192Z,100846.90
2019-04-20T22:02:57.581Z,100852.06
2019-04-20T22:05:21.176Z,100852.98
2019-04-20T22:07:48.466Z,100854.86
2019-04-20T22:10:19.024Z,100849.73
2019-04-20T22:12:49.007Z,100853.12
2019-04-20T22:15:19.718Z,100853.58
2019-04-20T22:17:42.694Z,100854.37
2019-04-20T22:20:20.063Z,100854.47
2019-04-20T22:22:53.272Z,100855.84
2019-04-20T22:25:30.718Z,100857.26
2019-04-20T22:27:37.507Z,100854.30
2019-04-20T22:30:04.378Z,100856.23
2019-04-20T22:32:32.265Z,100854.06
2019-04-20T22:35:03.072Z,100854.88
2019-04-20T22:37:30.120Z,100852.78
2019-04-20T22:39:57.960Z,100846.55
2019-04-20T22:42:26.104Z,100853.02
2019-04-20T22:44:56.608Z,100850.09
2019-04-20T22:47:28.166Z,100842.86
2019-04-20T22:50:12.677Z,100845.57
2019-04-20T22:52:38.060Z,100844.86
2019-04-20T22:55:11.675Z,100848.51
2019-04-20T22:57:31.639Z,100842.19
2019-04-20T22:59:56.946Z,100839.42
2019-04-20T23:02:16.513Z,100839.88
2019-04-20T23:04:44.682Z,100830.13
2019-04-20T23:07:12.810Z,100834.09
2019-04-20T23:09:50.322Z,100828.08
2019-04-20T23:12:13.427Z,100830.56
2019-04-20T23:14:38.273Z,100821.14
2019-04-20T23:17:06.333Z,100820.31
2019-04-20T23:19:42.876Z,100820.34
2019-04-20T23:22:05.266Z,100816.21
2019-04-20T23:24:31.053Z,100815.55
2019-04-20T23:26:59.466Z,100819.00
2019-04-20T23:29:31.439Z,100819.43
2019-04-20T23:32:02.438Z,100821.56
2019-04-20T23:34:28.467Z,100816.50
2019-04-20T23:36:54.787Z,100813.54
2019-04-20T23:39:24.684Z,100817.43
2019-04-20T23:41:58.002Z,100812.70
2019-04-20T23:44:19.338Z,100814.82
2019-04-20T23:46:47.368Z,100813.48
2019-04-20T23:49:23.242Z,100801.43
2019-04-20T23:52:08.575Z,100803.14
2019-04-20T23:54:18.654Z,100796.31
2019-04-20T23:56:41.665Z,100796.36
2019-04-20T23:59:08.667Z,100791.61
